Latest Coastal Weather Observations for Ceduna

IDS60701

Issued at 7:11 am CST Tuesday 30 August 2016 (issued every 10 minutes, with the page automatically refreshed every 10 minutes)

About coastal observations | Map of coastal stations | Coastal observations for SA | Marine services | Other Formats
Station Details ID: 018012 Name: CEDUNA AMO Lat: -32.13 Lon: 133.70 Height: 15.3 m
Data from the previous 72 hours. | See also: Recent months at Ceduna
Date/Time
CST
Temp
°C
Wind Pressure Rain since
9am
mm
Weather Cloud Vis
km
Sea
Height
m
Swell
Dir  Spd
kts
Gust
kts
hPa Trend Height
m
Period
s
Dir
30/07:00am 10.5 N 8 10 1010.8 - 0.0 - Partly cloudy 10 - - - -
30/06:30am 10.6 N 7 9 1010.3 - 0.0 - - 10 - - - -
30/06:00am 11.2 N 8 10 1009.9 R 0.0 - - 10 - - - -
30/05:30am 11.6 N 8 9 1009.7 - 0.0 - - 10 - - - -
30/05:00am 12.1 N 8 10 1009.5 - 0.0 - - 10 - - - -
30/04:30am 12.1 N 9 11 1009.1 - 0.0 - - 10 - - - -
30/04:00am 12.1 N 7 8 1009.2 - 0.0 - - 10 - - - -
30/03:30am 12.7 N 7 9 1009.1 - 0.0 - - 10 - - - -
30/03:00am 13.7 N 9 13 1009.2 R 0.0 - - 10 - - - -
30/02:30am 14.1 N 11 15 1009.3 - 0.0 - - 10 - - - -
30/02:00am 14.6 N 12 15 1009.5 - 0.0 - - 10 - - - -
30/01:30am 14.3 N 11 14 1009.6 - 0.0 - - 10 - - - -
30/01:00am 12.8 NE 7 9 1009.6 - 0.0 - - 10 - - - -
30/12:30am 10.1 ENE 6 7 1009.7 - 0.0 - - 10 - - - -
30/12:00am 11.3 ENE 9 10 1009.8 R 0.0 - - 10 - - - -
 
Date/Time
CST
Temp
°C
Wind Pressure Rain since
9am
mm
Weather Cloud Vis
km
Sea
Height
m
Swell
Dir  Spd
kts
Gust
kts
hPa Trend Height
m
Period
s
Dir
29/11:30pm 10.7 ENE 10 11 1009.8 - 0.0 - Partly cloudy 10 - - - -
29/11:00pm 11.7 NE 7 8 1010.0 - 0.0 - Partly cloudy 10 - - - -
29/10:30pm 12.2 E 10 12 1010.0 - 0.0 - Partly cloudy 10 - - - -
29/10:00pm 11.0 E 4 4 1010.4 - 0.0 - Partly cloudy 10 - - - -
29/09:30pm 11.0 ENE 4 6 1010.1 - 0.0 - Partly cloudy 10 - - - -
29/09:00pm 11.6 ENE 9 10 1009.8 R 0.0 - Partly cloudy 10 - - - -
29/08:30pm 11.6 NE 8 10 1009.6 - 0.0 - Partly cloudy 10 - - - -
29/08:00pm 11.1 ENE 6 9 1009.3 - 0.0 - Partly cloudy 10 - - - -
29/07:30pm 11.8 E 5 7 1008.7 - 0.0 - Partly cloudy 10 - - - -
29/07:00pm 12.9 SE 5 6 1008.4 - 0.0 - Partly cloudy 10 - - - -
29/06:30pm 14.9 SSE 6 8 1008.1 - 0.0 - Partly cloudy 10 - - - -
29/06:00pm 15.6 SSE 7 9 1007.6 R 0.0 - Partly cloudy 10 - - - -
29/05:30pm 16.1 S 9 12 1006.9 - 0.0 - Partly cloudy 10 - - - -
29/05:00pm 16.8 SSW 9 11 1006.7 - 0.0 - Partly cloudy 10 - - - -
29/04:30pm 18.3 SSW 11 14 1006.0 - 0.0 - Partly cloudy 10 - - - -
29/04:00pm 19.0 WNW 11 15 1006.2 - 0.0 - Partly cloudy 10 - - - -
29/03:30pm 23.1 NNW 14 21 1005.9 - 0.0 - Partly cloudy 10 - - - -
29/03:00pm 23.8 NNW 15 25 1005.8 F 0.0 - Cloudy 10 - - - -
29/02:57pm 23.8 NNW 15 25 1005.8 - 0.0 - Partly cloudy 10 - - - -
29/02:30pm 23.4 NNW 17 23 1005.8 - 0.0 - Partly cloudy 10 - - - -
29/02:00pm 25.1 NNW 15 20 1006.0 - 0.0 - Partly cloudy 10 - - - -
29/01:30pm 24.2 N 16 22 1006.5 - 0.0 - Partly cloudy 10 - - - -
29/01:00pm 23.1 N 16 21 1007.2 - 0.0 - Partly cloudy 10 - - - -
29/12:30pm 22.1 NNW 15 21 1007.9 - 0.0 - - 10 - - - -
29/12:00pm 21.7 N 15 19 1008.1 F 0.0 - - 10 - - - -
29/11:30am 22.0 N 14 19 1008.2 - 0.0 - - 10 - - - -
29/11:00am 19.9 N 15 19 1008.7 - 0.0 - - 10 - - - -
29/10:30am 20.0 N 14 19 1008.5 - 0.0 - - 10 - - - -
29/10:00am 18.7 N 14 19 1008.9 - 0.0 - - 10 - - - -
29/09:30am 17.8 N 12 15 1008.7 - 0.0 - Partly cloudy 10 - - - -
29/09:00am 17.0 N 14 18 1009.0 R 0.8 - Mostly clear 10 - - - -
29/08:30am 16.6 N 12 18 1008.9 - 0.8 - Partly cloudy 10 - - - -
29/08:00am 15.0 NNE 9 12 1008.3 - 0.8 - - 10 - - - -
29/07:30am 13.4 N 7 8 1008.2 - 0.8 - Partly cloudy 10 - - - -
29/07:00am 12.9 NNE 7 8 1008.1 - 0.8 - - 10 - - - -
29/06:30am 13.3 NNE 10 12 1007.6 - 0.8 - - 10 - - - -
29/06:00am 12.8 N 8 10 1007.6 R 0.8 - - 10 - - - -
29/05:30am 11.8 NNE 6 7 1007.4 - 0.8 - - 10 - - - -
29/05:00am 12.7 N 6 8 1007.0 - 0.8 - - 10 - - - -
29/04:30am 13.4 N 8 10 1006.6 - 0.8 - - 10 - - - -
29/04:00am 13.7 N 6 8 1007.0 - 0.8 - - 10 - - - -
29/03:30am 14.0 NNE 9 10 1006.7 - 0.8 - - 10 - - - -
29/03:00am 14.0 NNE 8 9 1006.6 F 0.8 Recent precip. Partly cloudy 10 - - - -
29/02:30am 15.0 NNE 12 15 1006.9 - 0.8 - Partly cloudy 10 - - - -
29/02:00am 15.1 NNE 13 17 1007.8 - 0.4 - Partly cloudy 10 - - - -
29/01:30am 15.3 NE 9 12 1007.4 - 0.0 - Partly cloudy 10 - - - -
29/01:00am 16.3 NNE 8 10 1007.7 - 0.0 - Partly cloudy 10 - - - -
29/12:30am 16.8 N 9 12 1008.2 - 0.0 - Cloudy 10 - - - -
29/12:00am 16.5 NNE 10 14 1007.8 R 0.0 - Cloudy 10 - - - -
 
Date/Time
CST
Temp
°C
Wind Pressure Rain since
9am
mm
Weather Cloud Vis
km
Sea
Height
m
Swell
Dir  Spd
kts
Gust
kts
hPa Trend Height
m
Period
s
Dir
28/11:30pm 17.2 NNE 14 18 1007.4 - 0.0 - Partly cloudy 10 - - - -
28/11:00pm 17.3 NNE 11 15 1007.8 - 0.0 - Cloudy 10 - - - -
28/10:30pm 17.3 NNE 12 15 1008.1 - 0.0 - Partly cloudy 10 - - - -
28/10:00pm 17.4 NNE 13 18 1007.7 - 0.0 - Partly cloudy 10 - - - -
28/09:30pm 17.7 NNE 16 21 1007.5 - 0.0 - - 10 - - - -
28/09:00pm 17.8 NNE 16 21 1007.2 R 0.0 - Partly cloudy 10 - - - -
28/08:30pm 18.1 NNE 14 18 1007.7 - 0.0 - Cloudy 10 - - - -
28/08:00pm 18.6 NNE 18 27 1008.0 - 0.0 - Cloudy 10 - - - -
28/07:52pm 18.8 NNE 17 27 1008.0 - 0.0 - Partly cloudy 10 - - - -
28/07:30pm 19.0 NNE 23 30 1006.9 - 0.0 - Partly cloudy 10 - - - -
28/07:02pm 19.8 NNE 20 31 1006.9 - 0.0 - Cloudy 10 - - - -
28/07:00pm 19.8 NNE 19 27 1006.9 - 0.0 - Cloudy 10 - - - -
28/06:30pm 19.5 NNE 18 23 1005.9 - 0.0 - Partly cloudy 10 - - - -
28/06:00pm 20.5 NNE 19 26 1005.6 F 0.0 - Cloudy 10 - - - -
28/05:30pm 21.7 NNE 19 29 1005.4 - 0.0 - Partly cloudy 10 - - - -
28/05:29pm 21.6 NNE 19 29 1005.4 - 0.0 - Partly cloudy 10 - - - -
28/05:00pm 22.5 NNE 18 23 1005.1 - 0.0 - Partly cloudy 10 - - - -
28/04:30pm 22.5 NNE 14 20 1005.1 - 0.0 - Partly cloudy 10 - - - -
28/04:00pm 22.1 NNE 14 18 1005.1 - 0.0 - Partly cloudy 10 - - - -
28/03:30pm 21.9 N 16 21 1005.5 - 0.0 - Partly cloudy 10 - - - -
28/03:02pm 23.6 N 22 34 1005.6 - 0.0 - Partly cloudy 10 - - - -
28/03:00pm 23.6 N 22 29 1005.5 R 0.0 - Cloudy 10 - - - -
28/02:30pm 24.0 N 24 39 1004.4 - 0.0 - Partly cloudy 10 - - - -
28/02:20pm 24.4 N 23 34 1004.8 - 0.0 - Partly cloudy 10 - - - -
28/02:00pm 24.9 N 23 32 1004.4 - 0.0 - Partly cloudy 10 - - - -
28/01:57pm 25.0 NNE 22 32 1004.3 - 0.0 - Partly cloudy 10 - - - -
28/01:30pm 23.9 N 21 29 1005.2 - 0.0 - Partly cloudy 10 - - - -
28/01:00pm 24.4 N 24 32 1005.7 - 0.0 - Partly cloudy 10 - - - -
28/12:30pm 25.8 N 23 33 1005.9 - 0.0 - Partly cloudy 10 - - - -
28/12:26pm 25.4 N 23 33 1006.0 - 0.0 - Partly cloudy 10 - - - -
28/12:00pm 24.9 N 20 29 1006.7 F 0.0 - Mostly cloudy 10 - - - -
28/11:41am 24.6 NNE 23 33 1006.1 - 0.0 - - 10 - - - -
28/11:30am 24.2 NNE 25 33 1006.1 - 0.0 - - 10 - - - -
28/11:00am 24.4 NNE 25 34 1006.7 - 0.0 - - 10 - - - -
28/10:51am 23.0 NNE 22 34 1006.9 - 0.0 - - 10 - - - -
28/10:30am 21.8 NNE 23 32 1007.3 - 0.0 - - 10 - - - -
28/10:00am 20.5 NNE 22 31 1007.8 - 0.0 - - 10 - - - -
28/09:32am 19.7 NNE 21 31 1008.1 - 0.0 - - 10 - - - -
28/09:30am 19.5 NNE 21 29 1008.1 - 0.0 - - 10 - - - -
28/09:00am 19.2 NNE 23 29 1008.4 F 0.0 - Cloudy 10 - - - -
28/08:30am 18.5 NNE 20 29 1008.4 - 0.0 - - 10 - - - -
28/08:00am 18.0 NNE 20 26 1008.6 - 0.0 - - 10 - - - -
28/07:30am 18.1 NNE 20 27 1008.6 - 0.0 - - 10 - - - -
28/07:07am 18.2 NNE 19 31 1008.6 - 0.0 - - 10 - - - -
28/07:00am 18.1 NNE 20 27 1008.6 - 0.0 - - 10 - - - -
28/06:30am 17.7 NNE 19 27 1008.5 - 0.0 - - 10 - - - -
28/06:00am 17.8 NNE 20 27 1008.6 F 0.0 - Cloudy 10 - - - -
28/05:30am 18.0 NNE 20 30 1008.7 - 0.0 - - 10 - - - -
28/05:27am 17.8 NNE 20 30 1008.8 - 0.0 - - 10 - - - -
28/05:00am 17.8 NNE 18 27 1008.9 - 0.0 - - 10 - - - -
28/04:30am 17.7 NNE 17 23 1009.1 - 0.0 - - 10 - - - -
28/04:00am 17.6 NNE 17 23 1009.2 - 0.0 - - 10 - - - -
28/03:30am 17.3 NNE 17 22 1009.5 - 0.0 - - 10 - - - -
28/03:00am 17.1 NNE 17 22 1009.7 F 0.0 - Cloudy 10 - - - -
28/02:30am 16.9 NE 15 19 1010.3 - 0.0 - - 10 - - - -
28/02:00am 16.9 NNE 15 19 1010.7 - 0.0 - - 10 - - - -
28/01:30am 16.8 NNE 15 19 1011.1 - 0.0 - - 10 - - - -
28/01:00am 16.5 NE 14 19 1011.5 - 0.0 - - 10 - - - -
28/12:30am 16.7 NE 14 17 1011.9 - 0.0 - - 10 - - - -
28/12:00am 16.7 NE 14 18 1012.2 F 0.0 - Cloudy 10 - - - -
 
Date/Time
CST
Temp
°C
Wind Pressure Rain since
9am
mm
Weather Cloud Vis
km
Sea
Height
m
Swell
Dir  Spd
kts
Gust
kts
hPa Trend Height
m
Period
s
Dir
27/11:30pm 15.3 NE 10 13 1012.5 - 0.0 - - 10 - - - -
27/11:00pm 15.3 NE 11 13 1012.7 - 0.0 - - 10 - - - -
27/10:30pm 14.1 NE 8 10 1012.9 - 0.0 - - 10 - - - -
27/10:00pm 14.4 NE 9 11 1013.0 - 0.0 - - 10 - - - -
27/09:30pm 13.2 ENE 8 9 1013.2 - 0.0 - - 10 - - - -
27/09:00pm 13.6 ENE 8 9 1013.4 F 0.0 - Cloudy 10 - - - -
27/08:30pm 14.2 ENE 9 9 1013.4 - 0.0 - - 10 - - - -
27/08:00pm 14.5 ENE 8 9 1013.4 - 0.0 - - 10 - - - -
27/07:30pm 14.9 NE 7 8 1013.3 - 0.0 - - 10 - - - -
27/07:00pm 15.9 NE 9 10 1013.3 - 0.0 - - 10 - - - -
27/06:30pm 18.3 NNE 9 14 1013.4 - 0.0 - - 10 - - - -
27/06:00pm 19.5 NNE 12 16 1012.8 F 0.0 - Mostly clear 10 - - - -
27/05:30pm 20.3 NNE 14 18 1012.9 - 0.0 - - 10 - - - -
27/05:00pm 20.8 NNE 13 19 1013.3 - 0.0 - - 10 - - - -
27/04:30pm 21.3 NNE 13 18 1013.6 - 0.0 - - 10 - - - -
27/04:00pm 21.5 N 15 19 1014.0 - 0.0 - - 10 - - - -
27/03:30pm 21.4 N 16 21 1014.2 - 0.0 - - 10 - - - -
27/03:00pm 21.5 NNE 15 19 1014.7 F 0.0 - Mostly clear 10 - - - -
27/02:30pm 21.3 NNE 15 22 1014.8 - 0.0 - - 10 - - - -
27/02:00pm 21.9 N 17 22 1015.6 - 0.0 - - 10 - - - -
27/01:30pm 21.7 N 16 23 1015.9 - 0.0 - - 10 - - - -
27/01:00pm 21.9 N 18 24 1016.5 - 0.0 - - 10 - - - -
27/12:30pm 21.9 N 19 26 1017.0 - 0.0 - - 10 - - - -
27/12:00pm 21.4 N 20 27 1017.5 F 0.0 - - 10 - - - -
27/11:30am 20.2 N 17 23 1018.1 - 0.0 - - 10 - - - -
27/11:00am 19.4 N 19 25 1018.5 - 0.0 - - 10 - - - -
27/10:30am 18.7 N 18 25 1018.8 - 0.0 - - 10 - - - -
27/10:00am 15.8 N 16 21 1019.2 - 0.0 - - 10 - - - -
27/09:30am 13.7 N 15 22 1019.4 - 0.0 - - 10 - - - -
27/09:00am 12.9 N 18 24 1019.5 F 0.0 - Cloudy 10 - - - -
27/08:30am 12.5 NNE 16 21 1019.7 - 0.0 - - 10 - - - -
27/08:00am 11.8 NNE 13 18 1019.5 - 0.0 - - 10 - - - -
27/07:30am 8.0 NE 10 12 1019.6 - 0.0 - - 10 - - - -

Other Formats:

Comma delimited format used in spreadsheet applications
http://www.bom.gov.au/fwo/IDS60701/IDS60701.94653.axf

JavaScript Object Notation format (JSON) in row-major order
http://www.bom.gov.au/fwo/IDS60701/IDS60701.94653.json